createdAt,value
2022-12-09T00:00:37.020Z,97351.75
2022-12-09T00:03:03.660Z,97346.28
2022-12-09T00:05:30.476Z,97351.44
2022-12-09T00:07:57.066Z,97345.66
2022-12-09T00:10:23.770Z,97340.47
2022-12-09T00:12:54.096Z,97354.16
2022-12-09T00:15:20.550Z,97355.34
2022-12-09T00:17:47.009Z,97350.22
2022-12-09T00:20:13.630Z,97354.16
2022-12-09T00:22:40.311Z,97348.22
2022-12-09T00:25:07.317Z,97357.22
2022-12-09T00:27:34.360Z,97360.00
2022-12-09T00:30:00.849Z,97355.75
2022-12-09T00:32:27.356Z,97363.56
2022-12-09T00:34:53.912Z,97357.28
2022-12-09T00:37:21.040Z,97367.19
2022-12-09T00:39:47.867Z,97355.97
2022-12-09T00:42:14.354Z,97364.06
2022-12-09T00:44:40.923Z,97363.97
2022-12-09T00:47:07.468Z,97363.56
2022-12-09T00:49:34.188Z,97368.19
2022-12-09T00:52:00.687Z,97363.78
2022-12-09T00:54:27.218Z,97364.25
2022-12-09T00:56:53.787Z,97365.84
2022-12-09T00:59:20.625Z,97353.13
2022-12-09T01:01:47.385Z,97361.84
2022-12-09T01:04:14.110Z,97359.28
2022-12-09T01:06:41.664Z,97365.03
2022-12-09T01:09:08.195Z,97365.84
2022-12-09T01:11:34.968Z,97372.00
2022-12-09T01:14:02.228Z,97366.69
2022-12-09T01:16:30.662Z,97369.00
2022-12-09T01:18:59.520Z,97367.09
2022-12-09T01:21:27.420Z,97371.63
2022-12-09T01:23:54.154Z,97372.53
2022-12-09T01:26:20.925Z,97381.34
2022-12-09T01:28:51.268Z,97371.75
2022-12-09T01:31:19.359Z,97372.75
2022-12-09T01:33:45.929Z,97377.91
2022-12-09T01:36:17.492Z,97377.09
2022-12-09T01:38:44.438Z,97376.78
2022-12-09T01:41:10.926Z,97386.38
2022-12-09T01:43:42.081Z,97382.53
2022-12-09T01:46:08.729Z,97385.09
2022-12-09T01:48:37.697Z,97376.88
2022-12-09T01:51:12.434Z,97377.38
2022-12-09T01:53:40.018Z,97370.13
2022-12-09T01:56:08.709Z,97377.81
2022-12-09T01:58:35.292Z,97368.81
2022-12-09T02:01:01.893Z,97359.81
2022-12-09T02:03:28.857Z,97361.56
2022-12-09T02:05:55.604Z,97363.63
2022-12-09T02:08:22.126Z,97358.09
2022-12-09T02:10:55.185Z,97363.34
2022-12-09T02:13:29.337Z,97359.81
2022-12-09T02:15:57.986Z,97365.47
2022-12-09T02:18:32.394Z,97364.47
2022-12-09T02:21:10.654Z,97365.28
2022-12-09T02:23:44.798Z,97362.06
2022-12-09T02:26:27.656Z,97360.06
2022-12-09T02:29:18.989Z,97358.97
2022-12-09T02:31:48.601Z,97361.59
2022-12-09T02:34:22.238Z,97356.22
2022-12-09T02:36:54.032Z,97362.09
2022-12-09T02:39:25.022Z,97351.50
2022-12-09T02:41:51.516Z,97356.84
2022-12-09T02:44:19.408Z,97351.59
2022-12-09T02:46:46.004Z,97349.16
2022-12-09T02:49:12.985Z,97355.94
2022-12-09T02:51:42.440Z,97351.44
2022-12-09T02:54:11.948Z,97343.69
2022-12-09T02:56:39.280Z,97352.88
2022-12-09T02:59:05.941Z,97344.69
2022-12-09T03:01:36.856Z,97345.16
2022-12-09T03:04:03.933Z,97343.63
2022-12-09T03:06:34.281Z,97342.63
2022-12-09T03:09:02.809Z,97338.59
2022-12-09T03:11:29.324Z,97337.69
2022-12-09T03:14:06.880Z,97340.41
2022-12-09T03:16:35.887Z,97336.69
2022-12-09T03:19:12.861Z,97336.88
2022-12-09T03:21:42.749Z,97334.75
2022-12-09T03:24:10.430Z,97334.09
2022-12-09T03:26:37.410Z,97327.53
2022-12-09T03:29:06.446Z,97328.78
2022-12-09T03:31:33.504Z,97330.91
2022-12-09T03:34:01.398Z,97335.56
2022-12-09T03:36:29.378Z,97330.09
2022-12-09T03:38:56.264Z,97330.25
2022-12-09T03:41:30.467Z,97326.22
2022-12-09T03:44:14.090Z,97331.16
2022-12-09T03:46:41.065Z,97328.25
2022-12-09T03:49:07.955Z,97327.63
2022-12-09T03:51:50.356Z,97317.63
2022-12-09T03:54:28.949Z,97317.75
2022-12-09T03:56:57.010Z,97322.66
2022-12-09T03:59:25.040Z,97320.84
2022-12-09T04:01:51.734Z,97320.00
2022-12-09T04:04:18.737Z,97313.13
2022-12-09T04:06:45.455Z,97313.03
2022-12-09T04:09:12.171Z,97315.75
2022-12-09T04:11:39.218Z,97301.63
2022-12-09T04:14:09.154Z,97310.84
2022-12-09T04:16:38.976Z,97295.13
2022-12-09T04:19:05.892Z,97300.91
2022-12-09T04:21:33.020Z,97304.13
2022-12-09T04:23:59.638Z,97290.78
2022-12-09T04:26:26.128Z,97296.84
2022-12-09T04:28:52.662Z,97290.50
2022-12-09T04:31:19.802Z,97294.50
2022-12-09T04:33:46.533Z,97287.41
2022-12-09T04:36:14.707Z,97290.28
2022-12-09T04:38:41.564Z,97279.81
2022-12-09T04:41:08.122Z,97287.97
2022-12-09T04:43:35.044Z,97277.66
2022-12-09T04:46:02.952Z,97276.56
2022-12-09T04:48:29.545Z,97273.72
2022-12-09T04:50:56.175Z,97279.84
2022-12-09T04:53:22.693Z,97278.16
2022-12-09T04:55:49.212Z,97273.59
2022-12-09T04:58:16.086Z,97274.31
2022-12-09T05:00:42.673Z,97271.63
2022-12-09T05:03:09.365Z,97267.53
2022-12-09T05:05:40.138Z,97265.63
2022-12-09T05:08:07.279Z,97271.22
2022-12-09T05:10:34.080Z,97273.38
2022-12-09T05:13:01.473Z,97272.88
2022-12-09T05:15:28.441Z,97264.59
2022-12-09T05:17:55.494Z,97275.28
2022-12-09T05:20:22.544Z,97275.53
2022-12-09T05:22:49.388Z,97276.94
2022-12-09T05:25:16.327Z,97270.78
2022-12-09T05:27:42.917Z,97274.00
2022-12-09T05:30:10.281Z,97281.06
2022-12-09T05:32:37.212Z,97272.97
2022-12-09T05:35:04.512Z,97272.38
2022-12-09T05:37:31.301Z,97272.66
2022-12-09T05:39:58.212Z,97273.94
2022-12-09T05:42:24.817Z,97279.69
2022-12-09T05:44:51.461Z,97275.06
2022-12-09T05:47:18.425Z,97281.00
2022-12-09T05:49:45.386Z,97280.59
2022-12-09T05:52:14.487Z,97285.06
2022-12-09T05:54:41.630Z,97284.94
2022-12-09T05:57:08.652Z,97280.91
2022-12-09T05:59:35.499Z,97276.47
2022-12-09T06:02:06.888Z,97275.56
2022-12-09T06:04:36.801Z,97284.09
2022-12-09T06:07:03.763Z,97281.88
2022-12-09T06:09:30.754Z,97286.72
2022-12-09T06:11:57.566Z,97284.19
2022-12-09T06:14:24.690Z,97288.91
2022-12-09T06:16:51.822Z,97294.19
2022-12-09T06:19:18.932Z,97286.47
2022-12-09T06:21:45.618Z,97286.47
2022-12-09T06:24:12.387Z,97287.13
2022-12-09T06:26:38.924Z,97291.47
2022-12-09T06:29:05.447Z,97296.41
2022-12-09T06:31:33.448Z,97297.22
2022-12-09T06:34:01.203Z,97290.75
2022-12-09T06:36:29.185Z,97283.09
2022-12-09T06:38:57.555Z,97277.31
2022-12-09T06:41:24.491Z,97281.28
2022-12-09T06:43:51.455Z,97287.03
2022-12-09T06:46:20.418Z,97286.72
2022-12-09T06:48:47.310Z,97287.94
2022-12-09T06:51:15.039Z,97294.34
2022-12-09T06:53:41.677Z,97280.56
2022-12-09T06:56:12.203Z,97283.50
2022-12-09T06:58:40.622Z,97278.84
2022-12-09T07:01:21.669Z,97288.03
2022-12-09T07:03:50.301Z,97285.59
2022-12-09T07:06:29.883Z,97285.59
2022-12-09T07:08:59.003Z,97286.47
2022-12-09T07:11:25.739Z,97288.41
2022-12-09T07:13:52.392Z,97290.81
2022-12-09T07:16:19.363Z,97294.03
2022-12-09T07:18:46.237Z,97294.31
2022-12-09T07:21:14.524Z,97284.13
2022-12-09T07:23:41.512Z,97299.09
2022-12-09T07:26:08.226Z,97290.97
2022-12-09T07:28:35.786Z,97288.84
2022-12-09T07:31:03.118Z,97289.84
2022-12-09T07:33:30.332Z,97287.28
2022-12-09T07:35:57.730Z,97290.22
2022-12-09T07:38:25.689Z,97292.94
2022-12-09T07:40:52.862Z,97300.31
2022-12-09T07:43:19.816Z,97300.19
2022-12-09T07:45:46.596Z,97292.72
2022-12-09T07:48:13.653Z,97290.28
2022-12-09T07:50:40.285Z,97290.22
2022-12-09T07:53:06.872Z,97291.47
2022-12-09T07:55:33.874Z,97293.69
2022-12-09T07:58:00.886Z,97286.47
2022-12-09T08:00:27.949Z,97285.66
2022-12-09T08:02:54.663Z,97287.47
2022-12-09T08:05:21.842Z,97289.91
2022-12-09T08:07:49.383Z,97291.91
2022-12-09T08:10:16.565Z,97290.50
2022-12-09T08:12:43.239Z,97282.66
2022-12-09T08:15:10.617Z,97285.97
2022-12-09T08:17:37.432Z,97279.50
2022-12-09T08:20:05.290Z,97277.41
2022-12-09T08:22:32.483Z,97263.50
2022-12-09T08:24:59.534Z,97274.25
2022-12-09T08:27:26.143Z,97273.94
2022-12-09T08:29:52.881Z,97282.13
2022-12-09T08:32:19.478Z,97284.72
2022-12-09T08:34:46.192Z,97280.75
2022-12-09T08:37:13.418Z,97289.25
2022-12-09T08:39:39.977Z,97284.28
2022-12-09T08:42:07.443Z,97284.28
2022-12-09T08:44:34.277Z,97287.38
2022-12-09T08:47:01.138Z,97282.06
2022-12-09T08:49:29.810Z,97286.25
2022-12-09T08:51:56.820Z,97289.13
2022-12-09T08:54:23.448Z,97281.13
2022-12-09T08:56:52.188Z,97276.19
2022-12-09T08:59:19.366Z,97278.94
2022-12-09T09:01:46.500Z,97279.06
2022-12-09T09:04:15.272Z,97277.75
2022-12-09T09:06:43.517Z,97278.44
2022-12-09T09:09:11.035Z,97277.69
2022-12-09T09:11:38.534Z,97287.50
2022-12-09T09:14:06.658Z,97278.22
2022-12-09T09:16:33.863Z,97280.75
2022-12-09T09:19:01.194Z,97276.28
2022-12-09T09:21:27.889Z,97280.75
2022-12-09T09:23:54.816Z,97287.50
2022-12-09T09:26:22.857Z,97280.53
2022-12-09T09:28:49.694Z,97275.63
2022-12-09T09:31:18.402Z,97274.19
2022-12-09T09:33:45.357Z,97269.72
2022-12-09T09:36:14.893Z,97276.97
2022-12-09T09:38:41.763Z,97262.69
2022-12-09T09:41:34.156Z,97266.69
2022-12-09T09:44:01.073Z,97256.63
2022-12-09T09:46:34.449Z,97259.22
2022-12-09T09:49:01.593Z,97256.75
2022-12-09T09:51:28.605Z,97249.56
2022-12-09T09:53:55.551Z,97251.03
2022-12-09T09:56:31.486Z,97239.13
2022-12-09T09:59:21.291Z,97239.00
2022-12-09T10:02:11.619Z,97243.47
2022-12-09T10:04:51.223Z,97231.59
2022-12-09T10:07:31.338Z,97238.81
2022-12-09T10:10:15.045Z,97233.47
2022-12-09T10:12:44.382Z,97233.06
2022-12-09T10:15:20.857Z,97232.88
2022-12-09T10:17:56.360Z,97227.44
2022-12-09T10:20:28.645Z,97224.53
2022-12-09T10:23:06.932Z,97220.69
2022-12-09T10:25:35.874Z,97216.91
2022-12-09T10:28:27.708Z,97225.44
2022-12-09T10:30:54.947Z,97217.88
2022-12-09T10:33:29.471Z,97216.81
2022-12-09T10:35:56.889Z,97215.72
2022-12-09T10:38:23.693Z,97214.97
2022-12-09T10:41:05.085Z,97213.84
2022-12-09T10:43:35.230Z,97211.63
2022-12-09T10:46:20.001Z,97214.13
2022-12-09T10:48:47.877Z,97209.03
2022-12-09T10:51:29.222Z,97207.84
2022-12-09T10:54:33.599Z,97210.63
2022-12-09T10:57:07.607Z,97215.91
2022-12-09T10:59:35.377Z,97209.03
2022-12-09T11:02:22.288Z,97220.94
2022-12-09T11:04:49.486Z,97220.44
2022-12-09T11:07:17.469Z,97210.81
2022-12-09T11:09:52.205Z,97214.00
2022-12-09T11:12:30.838Z,97214.81
2022-12-09T11:15:04.401Z,97210.63
2022-12-09T11:17:39.960Z,97213.50
2022-12-09T11:20:07.542Z,97207.72
2022-12-09T11:22:40.318Z,97212.06
2022-12-09T11:25:24.941Z,97224.28
2022-12-09T11:27:57.066Z,97215.59
2022-12-09T11:30:57.433Z,97218.34
2022-12-09T11:33:27.298Z,97205.59
2022-12-09T11:35:57.311Z,97201.81
2022-12-09T11:38:31.404Z,97198.44
2022-12-09T11:41:13.331Z,97187.91
2022-12-09T11:43:39.833Z,97191.63
2022-12-09T11:46:27.925Z,97187.59
2022-12-09T11:48:58.318Z,97187.09
2022-12-09T11:51:38.298Z,97181.47
2022-12-09T11:54:27.947Z,97181.63
2022-12-09T11:56:54.670Z,97186.78
2022-12-09T11:59:23.820Z,97184.06
2022-12-09T12:02:06.051Z,97184.53
2022-12-09T12:04:39.832Z,97184.19
2022-12-09T12:07:11.178Z,97175.69
2022-12-09T12:09:44.620Z,97187.28
2022-12-09T12:12:19.349Z,97175.41
2022-12-09T12:14:47.054Z,97178.41
2022-12-09T12:17:30.277Z,97173.94
2022-12-09T12:19:57.542Z,97185.06
2022-12-09T12:22:54.286Z,97177.81
2022-12-09T12:25:27.181Z,97179.44
2022-12-09T12:28:10.013Z,97175.09
2022-12-09T12:30:45.855Z,97181.50
2022-12-09T12:34:00.588Z,97177.16
2022-12-09T12:36:22.653Z,97179.22
2022-12-09T12:39:00.139Z,97177.31
2022-12-09T12:41:56.163Z,97173.16
2022-12-09T12:44:54.374Z,97159.97
2022-12-09T12:47:40.510Z,97166.88
2022-12-09T12:50:31.298Z,97171.06
2022-12-09T12:53:03.842Z,97164.66
2022-12-09T12:55:39.634Z,97164.16
2022-12-09T12:58:14.064Z,97162.41
2022-12-09T13:00:52.603Z,97174.13
2022-12-09T13:03:26.707Z,97157.41
2022-12-09T13:05:54.668Z,97159.97
2022-12-09T13:08:46.191Z,97160.13
2022-12-09T13:11:22.333Z,97164.66
2022-12-09T13:13:52.761Z,97163.84
2022-12-09T13:16:34.780Z,97167.88
2022-12-09T13:19:16.526Z,97161.25
2022-12-09T13:21:46.119Z,97154.50
2022-12-09T13:24:37.759Z,97158.53
2022-12-09T13:27:22.471Z,97149.22
2022-12-09T13:30:10.131Z,97152.44
2022-12-09T13:33:01.957Z,97139.56
2022-12-09T13:36:06.225Z,97141.69
2022-12-09T13:38:39.622Z,97134.91
2022-12-09T13:41:31.083Z,97134.59
2022-12-09T13:44:05.465Z,97147.59
2022-12-09T13:46:32.052Z,97141.34
2022-12-09T13:48:58.826Z,97152.28
2022-12-09T13:51:27.463Z,97149.69
2022-12-09T13:54:01.154Z,97147.28
2022-12-09T13:56:28.686Z,97151.28
2022-12-09T13:59:21.229Z,97147.28
2022-12-09T14:01:50.144Z,97150.00
2022-12-09T14:04:23.205Z,97148.06
2022-12-09T14:06:56.304Z,97157.06
2022-12-09T14:09:49.032Z,97161.56
2022-12-09T14:12:44.051Z,97162.88
2022-12-09T14:15:23.081Z,97154.19
2022-12-09T14:17:49.513Z,97159.31
2022-12-09T14:20:22.987Z,97152.91
2022-12-09T14:23:07.692Z,97157.88
2022-12-09T14:25:34.033Z,97150.34
2022-12-09T14:28:09.266Z,97144.72
2022-12-09T14:31:04.822Z,97155.75
2022-12-09T14:33:42.580Z,97148.19
2022-12-09T14:36:23.222Z,97145.59
2022-12-09T14:39:23.195Z,97149.94
2022-12-09T14:42:01.345Z,97151.69
2022-12-09T14:44:33.801Z,97157.47
2022-12-09T14:47:17.057Z,97151.19
2022-12-09T14:52:31.797Z,97154.63
2022-12-09T14:55:00.294Z,97160.63
2022-12-09T14:57:28.921Z,97158.81
2022-12-09T14:59:56.082Z,97167.75
2022-12-09T15:02:26.411Z,97177.78
2022-12-09T15:04:53.648Z,97172.22
2022-12-09T15:07:27.623Z,97170.16
2022-12-09T15:10:01.093Z,97172.34
2022-12-09T15:12:41.312Z,97182.09
2022-12-09T15:15:10.756Z,97178.75
2022-12-09T15:17:46.619Z,97177.97
2022-12-09T15:20:30.743Z,97173.63
2022-12-09T15:22:59.382Z,97178.66
2022-12-09T15:25:25.924Z,97176.84
2022-12-09T15:27:57.100Z,97190.31
2022-12-09T15:30:27.191Z,97190.31
2022-12-09T15:32:53.656Z,97185.66
2022-12-09T15:35:23.560Z,97197.25
2022-12-09T15:37:50.296Z,97193.88
2022-12-09T15:40:19.062Z,97191.84
2022-12-09T15:42:46.627Z,97193.75
2022-12-09T15:45:15.303Z,97193.25
2022-12-09T15:47:44.801Z,97200.63
2022-12-09T15:50:15.663Z,97195.69
2022-12-09T15:52:54.883Z,97193.25
2022-12-09T15:55:31.192Z,97193.88
2022-12-09T15:57:58.003Z,97195.81
2022-12-09T16:00:24.680Z,97194.53
2022-12-09T16:02:51.296Z,97191.13
2022-12-09T16:05:22.628Z,97194.75
2022-12-09T16:07:57.322Z,97183.03
2022-12-09T16:10:26.619Z,97187.03
2022-12-09T16:13:10.818Z,97188.75
2022-12-09T16:16:22.206Z,97186.97
2022-12-09T16:18:52.032Z,97183.84
2022-12-09T16:21:23.549Z,97189.81
2022-12-09T16:23:52.773Z,97180.66
2022-12-09T16:26:32.128Z,97176.44
2022-12-09T16:29:02.225Z,97177.13
2022-12-09T16:31:28.720Z,97177.03
2022-12-09T16:33:55.434Z,97178.66
2022-12-09T16:36:27.294Z,97169.41
2022-12-09T16:39:23.017Z,97184.09
2022-12-09T16:41:52.454Z,97172.91
2022-12-09T16:44:29.745Z,97173.75
2022-12-09T16:47:16.346Z,97172.94
2022-12-09T16:49:45.990Z,97168.63
2022-12-09T16:52:23.071Z,97171.06
2022-12-09T16:54:49.685Z,97167.38
2022-12-09T16:57:17.345Z,97168.47
2022-12-09T16:59:44.338Z,97173.81
2022-12-09T17:02:14.816Z,97184.13
2022-12-09T17:04:41.335Z,97178.47
2022-12-09T17:07:08.288Z,97178.66
2022-12-09T17:09:34.769Z,97182.72
2022-12-09T17:12:01.409Z,97189.50
2022-12-09T17:14:27.989Z,97184.66
2022-12-09T17:16:54.510Z,97186.25
2022-12-09T17:19:20.998Z,97184.56
2022-12-09T17:21:47.756Z,97184.03
2022-12-09T17:24:14.410Z,97185.25
2022-12-09T17:26:40.914Z,97191.13
2022-12-09T17:29:07.447Z,97194.53
2022-12-09T17:31:33.961Z,97188.78
2022-12-09T17:34:00.532Z,97192.31
2022-12-09T17:36:27.355Z,97195.84
2022-12-09T17:38:53.844Z,97193.13
2022-12-09T17:41:23.487Z,97187.50
2022-12-09T17:43:49.993Z,97190.44
2022-12-09T17:46:16.660Z,97203.72
2022-12-09T17:48:43.426Z,97201.81
2022-12-09T17:51:11.978Z,97213.41
2022-12-09T17:53:39.532Z,97205.94
2022-12-09T17:56:13.373Z,97213.59
2022-12-09T17:58:39.895Z,97209.47
2022-12-09T18:01:13.259Z,97210.59
2022-12-09T18:03:55.402Z,97211.78
2022-12-09T18:06:22.794Z,97208.88
2022-12-09T18:08:49.253Z,97213.09
2022-12-09T18:11:15.696Z,97209.81
2022-12-09T18:13:42.145Z,97217.47
2022-12-09T18:16:09.978Z,97221.94
2022-12-09T18:18:37.299Z,97226.50
2022-12-09T18:21:03.836Z,97224.19
2022-12-09T18:23:30.306Z,97226.78
2022-12-09T18:25:57.613Z,97227.09
2022-12-09T18:28:27.563Z,97230.25
2022-12-09T18:30:54.979Z,97228.50
2022-12-09T18:33:22.550Z,97226.66
2022-12-09T18:35:49.004Z,97224.97
2022-12-09T18:38:15.638Z,97226.19
2022-12-09T18:41:00.932Z,97231.97
2022-12-09T18:43:28.778Z,97224.44
2022-12-09T18:45:55.333Z,97238.47
2022-12-09T18:48:21.853Z,97228.69
2022-12-09T18:50:48.321Z,97230.59
2022-12-09T18:53:15.275Z,97226.56
2022-12-09T18:55:42.412Z,97223.22
2022-12-09T18:58:08.873Z,97229.84
2022-12-09T19:00:35.943Z,97232.50
2022-12-09T19:03:02.483Z,97234.19
2022-12-09T19:05:29.111Z,97236.63
2022-12-09T19:07:55.593Z,97240.00
2022-12-09T19:10:22.065Z,97243.16
2022-12-09T19:12:52.661Z,97245.81
2022-12-09T19:15:22.971Z,97240.72
2022-12-09T19:17:49.501Z,97234.69
2022-12-09T19:20:16.115Z,97242.56
2022-12-09T19:22:42.652Z,97242.84
2022-12-09T19:25:09.160Z,97243.16
2022-12-09T19:27:35.645Z,97237.50
2022-12-09T19:30:02.258Z,97242.66
2022-12-09T19:32:52.602Z,97238.81
2022-12-09T19:35:15.527Z,97236.19
2022-12-09T19:37:42.058Z,97238.59
2022-12-09T19:40:09.639Z,97246.03
2022-12-09T19:42:36.848Z,97242.44
2022-12-09T19:45:06.486Z,97245.72
2022-12-09T19:47:35.697Z,97250.63
2022-12-09T19:50:02.163Z,97243.97
2022-12-09T19:52:28.633Z,97251.09
2022-12-09T19:54:55.091Z,97252.56
2022-12-09T19:57:22.407Z,97251.97
2022-12-09T19:59:48.914Z,97251.16
2022-12-09T20:02:15.522Z,97249.03
2022-12-09T20:04:50.774Z,97254.81
2022-12-09T20:07:18.150Z,97249.16
2022-12-09T20:09:44.623Z,97255.47
2022-12-09T20:12:12.071Z,97251.31
2022-12-09T20:14:38.958Z,97264.63
2022-12-09T20:17:05.677Z,97268.44
2022-12-09T20:19:32.338Z,97265.09
2022-12-09T20:21:58.873Z,97264.72
2022-12-09T20:24:26.666Z,97266.34
2022-12-09T20:26:53.227Z,97266.94
2022-12-09T20:29:19.707Z,97264.28
2022-12-09T20:31:46.273Z,97259.66
2022-12-09T20:34:14.763Z,97260.28
2022-12-09T20:36:42.324Z,97254.84
2022-12-09T20:39:15.100Z,97262.38
2022-12-09T20:41:42.317Z,97269.53
2022-12-09T20:44:09.548Z,97268.25
2022-12-09T20:46:36.358Z,97275.78
2022-12-09T20:49:02.835Z,97276.47
2022-12-09T20:51:34.497Z,97276.88
2022-12-09T20:54:01.045Z,97284.34
2022-12-09T20:56:28.254Z,97293.25
2022-12-09T20:58:54.974Z,97294.84
2022-12-09T21:01:27.353Z,97297.28
2022-12-09T21:03:54.463Z,97292.06
2022-12-09T21:06:24.232Z,97292.06
2022-12-09T21:08:51.425Z,97300.28
2022-12-09T21:11:19.894Z,97303.81
2022-12-09T21:13:51.511Z,97300.34
2022-12-09T21:16:20.338Z,97303.13
2022-12-09T21:18:47.833Z,97304.34
2022-12-09T21:21:14.365Z,97309.38
2022-12-09T21:23:40.873Z,97307.56
2022-12-09T21:26:09.940Z,97307.84
2022-12-09T21:28:37.006Z,97308.00
2022-12-09T21:31:11.127Z,97306.59
2022-12-09T21:33:37.895Z,97310.28
2022-12-09T21:36:08.990Z,97307.47
2022-12-09T21:38:36.082Z,97309.81
2022-12-09T21:41:03.849Z,97310.56
2022-12-09T21:43:31.737Z,97306.25
2022-12-09T21:46:01.802Z,97304.75
2022-12-09T21:48:28.849Z,97312.91
2022-12-09T21:50:58.867Z,97308.28
2022-12-09T21:53:25.213Z,97320.34
2022-12-09T21:55:52.004Z,97315.50
2022-12-09T21:58:18.533Z,97308.38
2022-12-09T22:00:45.011Z,97317.03
2022-12-09T22:03:11.494Z,97327.47
2022-12-09T22:05:37.959Z,97317.25
2022-12-09T22:08:04.789Z,97324.69
2022-12-09T22:10:31.335Z,97333.63
2022-12-09T22:12:57.838Z,97332.09
2022-12-09T22:15:24.346Z,97331.31
2022-12-09T22:17:50.802Z,97332.88
2022-12-09T22:23:03.798Z,97345.38
2022-12-09T22:25:30.245Z,97335.94
2022-12-09T22:27:57.231Z,97335.16
2022-12-09T22:30:23.752Z,97331.97
2022-12-09T22:32:51.029Z,97332.69
2022-12-09T22:35:17.690Z,97337.75
2022-12-09T22:37:44.405Z,97334.00
2022-12-09T22:40:11.411Z,97333.34
2022-12-09T22:42:37.967Z,97330.09
2022-12-09T22:45:05.707Z,97338.28
2022-12-09T22:47:32.199Z,97327.13
2022-12-09T22:49:58.881Z,97333.38
2022-12-09T22:52:25.354Z,97331.13
2022-12-09T22:54:51.867Z,97331.78
2022-12-09T22:57:18.326Z,97336.66
2022-12-09T22:59:44.817Z,97338.81
2022-12-09T23:02:11.335Z,97336.19
2022-12-09T23:04:38.106Z,97337.25
2022-12-09T23:07:04.572Z,97343.09
2022-12-09T23:09:31.319Z,97346.91
2022-12-09T23:11:57.910Z,97352.16
2022-12-09T23:14:24.438Z,97348.00
2022-12-09T23:16:50.923Z,97343.91
2022-12-09T23:19:17.678Z,97346.53
2022-12-09T23:21:44.187Z,97337.66
2022-12-09T23:24:12.140Z,97344.91
2022-12-09T23:26:39.412Z,97342.19
2022-12-09T23:29:06.710Z,97344.09
2022-12-09T23:31:34.703Z,97342.28
2022-12-09T23:34:01.482Z,97339.41
2022-12-09T23:36:33.244Z,97342.34
2022-12-09T23:39:00.497Z,97347.56
2022-12-09T23:41:27.003Z,97347.13
2022-12-09T23:43:53.468Z,97345.00
2022-12-09T23:46:21.317Z,97342.28
2022-12-09T23:48:48.369Z,97336.81
2022-12-09T23:51:15.668Z,97345.28
2022-12-09T23:53:42.426Z,97342.25
2022-12-09T23:56:16.860Z,97340.78
2022-12-09T23:58:43.329Z,97344.13
